Pedernales — WDG6856 — position and weather

sailwx.info

Track history (hours):
 
Tides and Currents Weather Stations Pressure Air Temp Water Temp Dewpoint Dewpoint Depression Visibility Wind Speed Wind Dir Waves Ship Positions

Pedernales

Owner: Higman Barge Lines, Inc., Orange, TX. More information available from US FCC via Universal Licensing System and Coast Guard Vessel Documentation Center.

Last reported at 2017-Sep-20 23:49 UTC. Time now 2017-Sep-21 16:16 UTC.
Position N 29°59' W 090°24'.

Length 24 m; draft 3 m.

Type: Towing. MMSI: 367561410.

Date/timePositionNaut miles runAvg speedWind from/ knotsBaromVisibWave heightAir tempDewpointWater temp
2017-Sep-20 23:49N 29°59' W 090°24'  
2017-Sep-13 14:05N 29°59' W 090°24'0 0.0
2017-Sep-13 13:52N 29°59' W 090°24'26 0.9
2017-Sep-12 09:15N 29°34' W 090°30'1 5.4
2017-Sep-12 09:00N 29°34' W 090°32'3 5.2
2017-Sep-12 08:30N 29°34' W 090°35'2 4.5
2017-Sep-12 08:00N 29°35' W 090°37'2 3.0
2017-Sep-12 07:30N 29°35' W 090°39'3 5.1
2017-Sep-12 07:01N 29°37' W 090°41'2 3.3
2017-Sep-12 06:30N 29°35' W 090°43'2 4.4
2017-Sep-12 06:00N 29°34' W 090°44'3 5.4
2017-Sep-12 05:30N 29°32' W 090°47'3 6.2
2017-Sep-12 05:00N 29°32' W 090°50'3 5.5
2017-Sep-12 04:30N 29°33' W 090°54'3 6.1
2017-Sep-12 04:00N 29°34' W 090°57'3 5.8
2017-Sep-12 03:26N 29°37' W 090°59'55 3.6
2017-Sep-11 12:09N 29°50' W 092°01'1 5.5
2017-Sep-11 12:00N 29°49' W 092°02'3 5.3
2017-Sep-11 11:29N 29°48' W 092°05'3 5.5
2017-Sep-11 11:00N 29°47' W 092°07'3 5.3
2017-Sep-11 10:31N 29°47' W 092°10'3 5.5
2017-Sep-11 09:59N 29°48' W 092°13'2 3.5
2017-Sep-11 09:30N 29°48' W 092°15'2 5.0
2017-Sep-11 09:00N 29°49' W 092°18'3 5.0
2017-Sep-11 08:29N 29°51' W 092°20'36 4.8
2017-Sep-11 01:03N 29°56' W 093°01'0 4.9
2017-Sep-11 01:00N 29°56' W 093°01'2 4.9
2017-Sep-11 00:30N 29°56' W 093°04'2 3.4
2017-Sep-11 00:00N 29°56' W 093°06'  
Track history (hours):
 
Tides and Currents Weather Stations Pressure Air Temp Water Temp Dewpoint Dewpoint Depression Visibility Wind Speed Wind Dir Waves Ship Positions

Pedernales

Owner: Higman Barge Lines, Inc., Orange, TX. More information available from US FCC via Universal Licensing System and Coast Guard Vessel Documentation Center.

Last reported at 2017-Sep-20 23:49 UTC. Time now 2017-Sep-21 16:16 UTC.
Position N 29°59' W 090°24'.

Length 24 m; draft 3 m.

Type: Towing. MMSI: 367561410.

Date/timePositionNaut miles runAvg speedWind from/ knotsBaromVisibWave heightAir tempDewpointWater temp
2017-Sep-20 23:49N 29°59' W 090°24'  
2017-Sep-13 14:05N 29°59' W 090°24'0 0.0
2017-Sep-13 13:52N 29°59' W 090°24'26 0.9
2017-Sep-12 09:15N 29°34' W 090°30'1 5.4
2017-Sep-12 09:00N 29°34' W 090°32'3 5.2
2017-Sep-12 08:30N 29°34' W 090°35'2 4.5
2017-Sep-12 08:00N 29°35' W 090°37'2 3.0
2017-Sep-12 07:30N 29°35' W 090°39'3 5.1
2017-Sep-12 07:01N 29°37' W 090°41'2 3.3
2017-Sep-12 06:30N 29°35' W 090°43'2 4.4
2017-Sep-12 06:00N 29°34' W 090°44'3 5.4
2017-Sep-12 05:30N 29°32' W 090°47'3 6.2
2017-Sep-12 05:00N 29°32' W 090°50'3 5.5
2017-Sep-12 04:30N 29°33' W 090°54'3 6.1
2017-Sep-12 04:00N 29°34' W 090°57'3 5.8
2017-Sep-12 03:26N 29°37' W 090°59'55 3.6
2017-Sep-11 12:09N 29°50' W 092°01'1 5.5
2017-Sep-11 12:00N 29°49' W 092°02'3 5.3
2017-Sep-11 11:29N 29°48' W 092°05'3 5.5
2017-Sep-11 11:00N 29°47' W 092°07'3 5.3
2017-Sep-11 10:31N 29°47' W 092°10'3 5.5
2017-Sep-11 09:59N 29°48' W 092°13'2 3.5
2017-Sep-11 09:30N 29°48' W 092°15'2 5.0
2017-Sep-11 09:00N 29°49' W 092°18'3 5.0
2017-Sep-11 08:29N 29°51' W 092°20'36 4.8
2017-Sep-11 01:03N 29°56' W 093°01'0 4.9
2017-Sep-11 01:00N 29°56' W 093°01'2 4.9
2017-Sep-11 00:30N 29°56' W 093°04'2 3.4
2017-Sep-11 00:00N 29°56' W 093°06'  

Dump ship's entire track history